Saint Albans, Vermont
Current Conditions -  °F | °C
As of 2:55 AM on Wednesday 22 Oct 2014 (Local Time) from KFSO Reporting Station
Drizzle Drizzle  
Wind Chill: 41°   Ceiling: 500
Heat Index: 44°   Visibility: 5mi
Dew Point: 43°   Wind: 5mph
Humidity: 98%   Direction: 340°NNW
Pressure: 30.12"   Gusts: NA
Location:  44.81°N, 73.08°W
Report Text: KFSO 220655Z AUTO 34004KT 5SM -DZ OVC005 07/06 A3012 RMK AO2 T00650062
Loading
Personal Weather Stations






























Interactive Weather Map
Tropical Storm Tracking
New forecast layout! Learn more

10-Day Weather Forecast

Advertisements
Track Severe Weather on mobile